Time;durP1;ratioP1;P1;durP2;ratioP2;P2;SDS_P1;SDS_P2;PMS_P1;PMS_P2;Temp;Humidity;BMP_temperature;BMP_pressure;BME280_temperature;BME280_humidity;BME280_pressure;Samples;Min_cycle;Max_cycle;Signal;HPM_P1;HPM_P2
2022/12/24 00:02:20;;;;;;;2.50;1.70;;;;;;;26.51;22.35;97139.47;4981480;28;20446;-88
2022/12/24 00:04:46;;;;;;;2.50;1.88;;;;;;;26.58;22.81;97141.94;4973578;28;20916;-88
2022/12/24 00:07:12;;;;;;;3.37;2.10;;;;;;;26.70;22.39;97140.94;4976575;28;20457;-88
2022/12/24 00:09:38;;;;;;;4.80;3.20;;;;;;;26.44;22.04;97139.78;4976559;28;20812;-88
2022/12/24 00:12:05;;;;;;;4.80;2.88;;;;;;;26.20;23.06;97139.69;4981539;28;20747;-88
2022/12/24 00:14:31;;;;;;;7.07;4.17;;;;;;;26.17;22.57;97143.44;4992240;28;20407;-87
2022/12/24 00:16:57;;;;;;;7.57;4.27;;;;;;;25.81;23.54;97137.81;4970831;28;20421;-88
2022/12/24 00:19:23;;;;;;;4.75;3.25;;;;;;;26.01;23.45;97143.72;4992833;28;20902;-87
2022/12/24 00:21:49;;;;;;;3.20;2.40;;;;;;;26.16;22.98;97138.28;4982806;28;20757;-87
2022/12/24 00:24:15;;;;;;;3.70;2.22;;;;;;;26.26;23.34;97132.16;4976274;28;20400;-87
2022/12/24 00:26:42;;;;;;;3.20;2.17;;;;;;;25.80;23.63;97124.97;4976397;28;20392;-87
2022/12/24 00:29:09;;;;;;;3.28;2.13;;;;;;;25.94;23.33;97124.34;4976512;28;20495;-87
2022/12/24 00:31:35;;;;;;;3.30;2.38;;;;;;;25.98;23.82;97122.94;4976450;28;20408;-87
2022/12/24 00:34:02;;;;;;;2.50;2.00;;;;;;;25.90;24.01;97118.91;4989522;28;20436;-87
2022/12/24 00:36:28;;;;;;;3.00;2.20;;;;;;;25.59;23.74;97114.66;4991215;28;20780;-87
2022/12/24 00:38:54;;;;;;;2.65;1.77;;;;;;;25.73;23.63;97106.41;5015300;28;20387;-86
2022/12/24 00:41:23;;;;;;;2.35;1.75;;;;;;;25.57;24.00;97109.50;5015161;28;20407;-86
2022/12/24 00:43:52;;;;;;;3.33;2.20;;;;;;;25.29;24.09;97105.88;5015410;28;20463;-86
2022/12/24 00:46:19;;;;;;;1.85;1.50;;;;;;;25.36;24.51;97105.56;5015237;28;20405;-86
2022/12/24 00:48:46;;;;;;;2.17;1.77;;;;;;;24.92;24.71;97098.59;5015178;28;20419;-86
2022/12/24 00:51:12;;;;;;;3.93;2.33;;;;;;;24.42;25.29;97090.53;5014921;28;20399;-87
2022/12/24 00:53:39;;;;;;;2.35;2.03;;;;;;;24.67;25.34;97095.94;4987374;28;20474;-86
2022/12/24 00:56:06;;;;;;;3.67;2.00;;;;;;;24.13;25.97;97101.31;4975951;28;20436;-86
2022/12/24 00:58:32;;;;;;;3.58;2.20;;;;;;;24.30;26.40;97097.03;4981832;28;20423;-86
2022/12/24 01:00:58;;;;;;;3.40;1.80;;;;;;;24.77;25.96;97094.00;4981394;28;20400;-86
2022/12/24 01:03:37;;;;;;;3.22;2.22;;;;;;;24.52;26.21;97094.97;4975961;28;20400;-86
2022/12/24 01:06:12;;;;;;;2.92;2.03;;;;;;;24.40;26.45;97082.59;4975382;28;20498;-87
2022/12/24 01:08:39;;;;;;;3.65;2.35;;;;;;;23.72;27.53;97088.34;4978646;28;20464;-86
2022/12/24 01:11:06;;;;;;;3.85;2.10;;;;;;;23.11;28.43;97078.44;4988840;28;20402;-86
2022/12/24 01:13:32;;;;;;;3.10;2.20;;;;;;;23.33;27.95;97070.91;4977624;28;20423;-86
2022/12/24 01:15:59;;;;;;;3.55;2.38;;;;;;;23.11;27.60;97069.25;4994777;28;20433;-86
2022/12/24 01:18:26;;;;;;;4.22;2.65;;;;;;;22.82;28.26;97063.06;4995092;28;20445;-86
2022/12/24 01:21:00;;;;;;;2.97;2.13;;;;;;;23.78;26.92;97053.66;4994778;28;20433;-86
2022/12/24 01:23:28;;;;;;;3.13;1.67;;;;;;;24.19;26.70;97046.16;4995037;28;20407;-86
2022/12/24 01:25:54;;;;;;;1.77;1.65;;;;;;;23.84;26.94;97062.28;4993150;28;20432;-86
2022/12/24 01:28:21;;;;;;;3.00;1.80;;;;;;;23.26;27.77;97050.75;4976939;28;20526;-86
2022/12/24 01:30:47;;;;;;;2.17;1.63;;;;;;;23.79;26.77;97049.63;4975393;28;20430;-86
2022/12/24 01:33:14;;;;;;;2.50;1.67;;;;;;;23.25;27.64;97049.97;4975440;28;20421;-86
2022/12/24 01:35:41;;;;;;;2.45;1.60;;;;;;;24.31;26.66;97046.09;4980302;28;20431;-86
2022/12/24 01:38:10;;;;;;;2.53;1.80;;;;;;;23.28;27.63;97043.47;4994727;28;20410;-86
2022/12/24 01:43:23;;;;;;;1.90;1.40;;;;;;;23.84;26.95;97045.47;4992162;28;20411;-86
2022/12/24 01:45:51;;;;;;;1.95;1.17;;;;;;;24.51;26.26;97040.06;4974822;28;20515;-86
2022/12/24 01:48:23;;;;;;;1.73;1.30;;;;;;;24.68;25.75;97042.19;4974846;28;20435;-86
2022/12/24 01:50:56;;;;;;;2.08;1.40;;;;;;;24.55;26.41;97043.53;4975091;28;20400;-86
2022/12/24 01:53:23;;;;;;;1.90;1.40;;;;;;;24.70;25.57;97038.91;4974951;28;20396;-86
2022/12/24 01:55:50;;;;;;;1.85;1.60;;;;;;;23.93;26.19;97042.72;4975169;28;20388;-86
2022/12/24 01:58:21;;;;;;;1.63;1.17;;;;;;;24.11;26.23;97040.03;4977112;28;20888;-86
2022/12/24 02:00:48;;;;;;;1.65;1.20;;;;;;;24.26;26.28;97043.09;4987769;28;20403;-86
2022/12/24 02:03:14;;;;;;;1.30;1.00;;;;;;;24.55;25.87;97038.69;4974549;28;20956;-86
2022/12/24 02:05:52;;;;;;;1.00;0.90;;;;;;;24.70;25.79;97033.28;4974589;28;20452;-86
2022/12/24 02:08:19;;;;;;;1.30;1.00;;;;;;;24.89;25.65;97042.56;4984850;28;20434;-87
2022/12/24 02:10:47;;;;;;;1.75;1.17;;;;;;;25.04;25.08;97041.50;4994208;28;20405;-86
2022/12/24 02:13:17;;;;;;;1.13;1.00;;;;;;;25.24;25.42;97044.66;4994253;28;20445;-87
2022/12/24 02:16:13;;;;;;;1.00;0.90;;;;;;;24.86;25.29;97030.22;4994055;28;20390;-87
2022/12/24 02:18:57;;;;;;;1.30;1.00;;;;;;;25.10;25.12;97036.06;4991838;28;20417;-86
2022/12/24 02:21:43;;;;;;;1.40;1.10;;;;;;;25.00;25.19;97018.41;4993868;28;20465;-86
2022/12/24 02:24:09;;;;;;;;;;;;;;;24.70;24.88;97016.44;4993721;28;20781;-86
2022/12/24 02:26:54;;;;;;;1.90;1.23;;;;;;;24.04;26.44;97021.44;4993370;28;20277;-87
2022/12/24 02:29:42;;;;;;;1.55;0.90;;;;;;;23.61;27.07;97021.50;4993189;28;20521;-86
2022/12/24 02:32:23;;;;;;;1.70;1.40;;;;;;;23.26;27.98;97017.16;4993505;28;20920;-86
2022/12/24 02:35:05;;;;;;;0.80;0.80;;;;;;;23.73;27.45;97017.84;4970586;28;20446;-86
2022/12/24 02:37:36;;;;;;;1.20;1.00;;;;;;;23.92;27.17;97018.75;4974069;28;20455;-87
2022/12/24 02:40:23;;;;;;;1.35;1.10;;;;;;;24.00;26.97;97011.59;4974148;28;20499;-86
2022/12/24 02:42:56;;;;;;;1.27;1.17;;;;;;;23.30;27.86;97017.78;4974019;28;20399;-86
2022/12/24 02:45:28;;;;;;;1.15;1.05;;;;;;;23.72;26.54;97015.47;4974037;28;20446;-86
2022/12/24 02:47:55;;;;;;;1.15;0.90;;;;;;;24.10;26.74;97018.06;4973924;28;20420;-86
2022/12/24 02:50:23;;;;;;;1.55;1.20;;;;;;;24.07;26.99;97019.00;4973972;28;20458;-86
2022/12/24 02:52:50;;;;;;;0.90;0.80;;;;;;;23.93;26.75;97012.66;4982923;28;20790;-87
2022/12/24 02:55:18;;;;;;;1.40;1.00;;;;;;;24.55;26.32;97012.66;4993338;28;20418;-86
2022/12/24 02:58:09;;;;;;;1.25;1.00;;;;;;;23.92;27.64;97007.53;4993256;28;20477;-86
2022/12/24 03:01:15;;;;;;;1.27;1.10;;;;;;;24.20;26.47;97017.66;4992858;28;20404;-86
2022/12/24 03:04:38;;;;;;;1.60;1.13;;;;;;;24.08;26.22;97021.34;4976191;28;20942;-87
2022/12/24 03:07:10;;;;;;;1.25;1.08;;;;;;;24.18;25.80;97020.13;4992487;28;20518;-87
2022/12/24 03:10:25;;;;;;;1.30;1.08;;;;;;;24.48;25.95;97027.75;4980223;28;20408;-87
2022/12/24 03:13:01;;;;;;;1.35;1.17;;;;;;;24.51;25.61;97021.22;4933174;29;20416;-87
2022/12/24 03:15:29;;;;;;;1.20;0.90;;;;;;;23.21;27.54;97032.50;4967834;28;20400;-86
2022/12/24 03:18:00;;;;;;;1.15;1.05;;;;;;;23.78;27.25;97030.50;4973479;28;20752;-87
2022/12/24 03:20:39;;;;;;;1.20;1.10;;;;;;;24.36;26.58;97028.66;4973443;28;20396;-87
2022/12/24 03:23:06;;;;;;;1.70;1.30;;;;;;;23.66;27.50;97031.34;4973576;28;20543;-87
2022/12/24 03:25:33;;;;;;;1.33;1.13;;;;;;;24.01;27.30;97030.75;4977489;28;20399;-87
2022/12/24 03:28:03;;;;;;;1.50;1.40;;;;;;;24.42;26.39;97026.81;4975218;28;20421;-87
2022/12/24 03:30:30;;;;;;;1.40;1.30;;;;;;;25.15;26.18;97021.41;4992610;28;20841;-86
2022/12/24 03:32:56;;;;;;;1.30;1.20;;;;;;;25.35;25.19;97030.94;4992784;28;20405;-86
2022/12/24 03:35:22;;;;;;;1.37;1.23;;;;;;;25.11;25.31;97034.81;4992334;28;20933;-87
2022/12/24 03:37:48;;;;;;;1.52;1.38;;;;;;;25.02;25.13;97034.81;4992631;28;20507;-87
2022/12/24 03:40:14;;;;;;;1.38;1.10;;;;;;;25.03;25.86;97034.34;4997864;28;20409;-87
2022/12/24 03:42:41;;;;;;;1.58;1.45;;;;;;;25.14;25.93;97036.69;4997805;28;20947;-87
2022/12/24 03:45:08;;;;;;;1.10;1.00;;;;;;;25.50;25.02;97035.94;4998886;28;20452;-87
2022/12/24 03:47:34;;;;;;;1.35;1.20;;;;;;;25.55;25.44;97043.78;4981990;28;20759;-87
2022/12/24 03:50:00;;;;;;;1.25;1.02;;;;;;;26.02;25.10;97035.59;4999041;28;20434;-87
2022/12/24 03:52:27;;;;;;;1.35;1.10;;;;;;;26.29;24.39;97035.53;4999239;28;20418;-87
2022/12/24 03:54:53;;;;;;;1.20;1.10;;;;;;;26.33;24.41;97038.94;4999061;28;20767;-87
2022/12/24 03:57:19;;;;;;;1.40;1.30;;;;;;;25.63;24.27;97051.41;4981255;28;20788;-87
2022/12/24 03:59:45;;;;;;;1.10;1.00;;;;;;;25.60;24.80;97051.56;4993160;28;20416;-86
2022/12/24 04:02:11;;;;;;;1.02;0.93;;;;;;;25.47;24.68;97054.53;4979549;28;20771;-87
2022/12/24 04:04:37;;;;;;;1.10;0.95;;;;;;;25.82;24.79;97050.16;4980970;28;20396;-87
2022/12/24 04:07:04;;;;;;;1.23;0.90;;;;;;;26.06;24.56;97056.69;4998511;28;20435;-87
2022/12/24 04:09:31;;;;;;;1.42;1.10;;;;;;;26.26;24.42;97047.72;4998955;28;20446;-86
2022/12/24 04:11:57;;;;;;;1.17;0.93;;;;;;;26.50;24.34;97051.41;4981774;28;20504;-86
2022/12/24 04:14:23;;;;;;;1.55;1.10;;;;;;;26.61;23.72;97042.44;4981194;28;20394;-87
2022/12/24 04:16:49;;;;;;;1.10;1.00;;;;;;;26.70;23.99;97050.84;4993426;28;20404;-87
2022/12/24 04:19:16;;;;;;;2.03;1.47;;;;;;;26.61;22.94;97048.06;4998790;28;20825;-87
2022/12/24 04:21:42;;;;;;;2.57;2.20;;;;;;;26.17;23.54;97047.75;4994983;28;20467;-87
2022/12/24 04:24:08;;;;;;;2.38;2.17;;;;;;;26.20;24.00;97048.84;4969989;28;20616;-87
2022/12/24 04:26:34;;;;;;;2.10;1.83;;;;;;;26.44;23.67;97042.03;5004290;28;20405;-87
2022/12/24 04:29:00;;;;;;;2.60;2.40;;;;;;;26.58;23.00;97038.53;4998515;28;20406;-86
2022/12/24 04:31:26;;;;;;;2.53;2.33;;;;;;;26.67;23.62;97046.19;4998847;28;20402;-87
2022/12/24 04:33:52;;;;;;;3.30;3.00;;;;;;;26.76;23.39;97039.75;4996755;28;20394;-87
2022/12/24 04:36:19;;;;;;;2.67;2.47;;;;;;;26.73;23.14;97042.22;4998881;28;20418;-87
2022/12/24 04:38:47;;;;;;;2.67;2.47;;;;;;;26.39;22.34;97042.69;4998682;28;20394;-86
2022/12/24 04:41:16;;;;;;;2.22;2.00;;;;;;;25.88;23.25;97047.50;4995140;28;20906;-86
2022/12/24 04:43:42;;;;;;;1.80;1.70;;;;;;;25.60;23.27;97052.34;4998428;28;20736;-87
2022/12/24 04:46:16;;;;;;;1.50;1.40;;;;;;;25.37;23.64;97058.53;4998707;28;20961;-87
2022/12/24 04:48:43;;;;;;;1.50;1.40;;;;;;;25.37;24.50;97064.16;4998573;28;20472;-87
2022/12/24 04:51:10;;;;;;;1.42;1.33;;;;;;;25.69;23.74;97060.00;4990095;28;20489;-87
2022/12/24 04:53:38;;;;;;;2.55;1.75;;;;;;;25.78;23.24;97063.59;4995514;28;20398;-87
2022/12/24 04:56:11;;;;;;;1.90;1.70;;;;;;;25.97;23.55;97061.53;4995430;28;20398;-87
2022/12/24 04:58:38;;;;;;;2.63;2.10;;;;;;;26.16;23.20;97057.47;4978639;28;20448;-87
2022/12/24 05:01:06;;;;;;;2.45;1.85;;;;;;;26.31;22.71;97061.16;4974259;28;20404;-86
2022/12/24 05:03:33;;;;;;;2.22;2.00;;;;;;;25.82;22.57;97057.78;4979175;28;20900;-87
2022/12/24 05:06:05;;;;;;;2.90;2.10;;;;;;;25.85;23.15;97065.31;4995021;28;20422;-87
2022/12/24 05:08:31;;;;;;;2.75;2.30;;;;;;;25.77;23.32;97069.66;4989551;28;20484;-87
2022/12/24 05:10:58;;;;;;;2.30;2.10;;;;;;;25.85;23.82;97068.13;4995095;28;20405;-87
2022/12/24 05:13:24;;;;;;;2.45;2.10;;;;;;;25.89;23.05;97063.88;4975610;28;20470;-87
2022/12/24 05:15:51;;;;;;;2.45;2.13;;;;;;;25.82;23.44;97067.03;4975667;28;20402;-87
2022/12/24 05:18:17;;;;;;;2.30;2.05;;;;;;;25.73;23.40;97067.03;4975583;28;20772;-87
2022/12/24 05:20:44;;;;;;;1.90;1.70;;;;;;;25.72;23.17;97067.50;4975434;28;20392;-87
2022/12/24 05:28:46;;;;;;;1.70;1.60;;;;;;;25.91;23.26;97077.47;4975249;28;20519;-87
2022/12/24 05:31:12;;;;;;;2.70;1.88;;;;;;;25.91;23.46;97080.28;4975643;28;20554;-87
2022/12/24 05:33:38;;;;;;;2.75;2.28;;;;;;;25.89;23.90;97083.56;4975162;28;20947;-87
2022/12/24 05:36:04;;;;;;;2.10;1.90;;;;;;;25.92;23.54;97090.28;4957850;28;20416;-87
2022/12/24 05:38:30;;;;;;;1.83;1.73;;;;;;;26.05;23.16;97091.69;4975259;28;20775;-87
2022/12/24 05:40:57;;;;;;;2.33;2.10;;;;;;;24.97;23.45;97086.72;4975100;28;20813;-87
2022/12/24 05:43:23;;;;;;;1.50;1.40;;;;;;;24.95;24.07;97080.03;4993251;28;20485;-87
2022/12/24 05:45:49;;;;;;;1.75;1.45;;;;;;;25.18;23.80;97087.91;4994656;28;20398;-87
2022/12/24 05:48:15;;;;;;;1.52;1.40;;;;;;;25.21;23.66;97084.91;4977035;28;20418;-87
2022/12/24 05:50:41;;;;;;;1.30;1.13;;;;;;;25.32;24.31;97088.06;4977054;28;20410;-87
2022/12/24 05:53:07;;;;;;;1.52;1.38;;;;;;;25.67;23.04;97088.56;4994696;28;20452;-87
2022/12/24 05:55:34;;;;;;;1.30;1.20;;;;;;;25.63;23.69;97095.59;4976812;28;20385;-87
2022/12/24 05:58:00;;;;;;;1.30;1.20;;;;;;;25.37;23.74;97095.88;4994039;28;20922;-87
2022/12/24 06:00:26;;;;;;;1.33;1.23;;;;;;;25.28;24.30;97100.69;4986507;28;20405;-87
2022/12/24 06:02:52;;;;;;;1.20;1.10;;;;;;;25.55;23.94;97097.19;4975549;28;20432;-87
2022/12/24 06:05:18;;;;;;;1.45;1.30;;;;;;;25.62;23.67;97085.63;4994246;28;20929;-87
2022/12/24 06:07:44;;;;;;;1.20;1.10;;;;;;;25.78;23.18;97091.72;4994000;28;20992;-87
2022/12/24 06:10:11;;;;;;;0.90;0.90;;;;;;;25.26;23.72;97103.19;4993909;28;20398;-87
2022/12/24 06:12:37;;;;;;;1.13;0.95;;;;;;;25.35;23.47;97092.75;4976650;28;20992;-87
2022/12/24 06:15:03;;;;;;;1.10;1.00;;;;;;;24.87;24.10;97104.81;4993498;28;20476;-87
2022/12/24 06:17:29;;;;;;;1.00;0.90;;;;;;;25.09;24.60;97096.28;4976225;28;20410;-87
2022/12/24 06:19:55;;;;;;;1.30;1.17;;;;;;;25.14;24.44;97104.09;4993958;28;20398;-87
2022/12/24 06:22:22;;;;;;;1.30;0.93;;;;;;;25.65;24.13;97104.38;4994104;28;20440;-87
2022/12/24 06:24:48;;;;;;;1.27;1.17;;;;;;;25.72;24.23;97098.44;5000298;28;20411;-86
2022/12/24 06:27:14;;;;;;;0.80;0.80;;;;;;;25.91;23.93;97092.31;5001473;28;20474;-87
2022/12/24 06:29:40;;;;;;;0.85;0.80;;;;;;;26.05;23.83;97100.13;4993528;28;20512;-87
2022/12/24 06:32:06;;;;;;;0.80;0.80;;;;;;;25.86;23.57;97100.59;4992742;28;20402;-87
2022/12/24 06:34:32;;;;;;;0.70;0.70;;;;;;;25.98;23.10;97102.47;4989361;28;20402;-87
2022/12/24 06:36:59;;;;;;;0.70;0.70;;;;;;;25.58;23.76;97107.50;4993974;28;20421;-87
2022/12/24 06:39:25;;;;;;;0.80;0.80;;;;;;;25.77;23.69;97107.00;4993692;28;20412;-87
2022/12/24 06:41:51;;;;;;;0.75;0.75;;;;;;;25.82;23.05;97112.00;4993546;28;20395;-86
2022/12/24 06:44:17;;;;;;;0.70;0.70;;;;;;;25.95;23.77;97111.88;4993523;28;20402;-87
2022/12/24 06:46:43;;;;;;;1.10;1.00;;;;;;;26.11;23.64;97122.81;4976255;28;20427;-87
2022/12/24 06:49:09;;;;;;;0.77;0.77;;;;;;;23.98;25.19;97134.66;4991898;28;20417;-87
2022/12/24 06:51:36;;;;;;;0.80;0.80;;;;;;;25.08;24.55;97129.22;4974690;28;20404;-87
2022/12/24 06:54:02;;;;;;;0.70;0.70;;;;;;;25.73;24.18;97134.50;4973673;28;20435;-86
2022/12/24 06:56:28;;;;;;;1.10;1.00;;;;;;;24.52;24.74;97132.25;4973860;28;20391;-86
2022/12/24 06:58:54;;;;;;;0.70;0.70;;;;;;;25.09;24.76;97133.56;4982570;28;20469;-87
2022/12/24 07:01:20;;;;;;;0.70;0.70;;;;;;;25.35;24.41;97134.09;4981652;28;20812;-87
2022/12/24 07:03:47;;;;;;;0.77;0.77;;;;;;;25.20;24.24;97141.59;4993164;28;20402;-87
2022/12/24 07:06:22;;;;;;;0.68;0.68;;;;;;;25.15;24.40;97148.59;4992218;28;20425;-87
2022/12/24 07:08:49;;;;;;;0.70;0.70;;;;;;;25.56;24.60;97149.31;4991697;28;21044;-87
2022/12/24 07:11:15;;;;;;;0.80;0.80;;;;;;;25.98;23.93;97153.09;4993096;28;20405;-86
2022/12/24 07:13:41;;;;;;;0.70;0.70;;;;;;;26.33;23.95;97162.00;4992707;28;20393;-87
2022/12/24 07:16:08;;;;;;;1.02;1.00;;;;;;;26.39;23.42;97160.13;4992983;28;20406;-87
2022/12/24 07:18:34;;;;;;;0.80;0.80;;;;;;;25.75;23.80;97162.16;4992903;28;20397;-87
2022/12/24 07:21:02;;;;;;;0.70;0.60;;;;;;;25.88;23.68;97160.00;4992953;28;20481;-87
2022/12/24 07:23:30;;;;;;;0.60;0.60;;;;;;;25.84;23.89;97170.59;4991895;28;20387;-87
2022/12/24 07:26:00;;;;;;;0.50;0.50;;;;;;;26.26;23.85;97173.56;4992865;28;20409;-87
2022/12/24 07:28:26;;;;;;;0.80;0.70;;;;;;;26.46;23.84;97169.03;4992616;28;20424;-87
2022/12/24 07:30:53;;;;;;;0.50;0.50;;;;;;;26.49;23.59;97170.13;4975377;28;20399;-87
2022/12/24 07:33:19;;;;;;;0.90;0.80;;;;;;;24.75;25.14;97184.28;4992879;28;20806;-87
2022/12/24 07:35:45;;;;;;;0.60;0.60;;;;;;;25.08;25.26;97181.81;4992952;28;20758;-87
2022/12/24 07:38:11;;;;;;;0.60;0.60;;;;;;;25.53;24.58;97184.00;4992379;28;20410;-87
2022/12/24 07:40:37;;;;;;;0.60;0.60;;;;;;;25.56;24.87;97192.28;4986509;28;20420;-87
2022/12/24 07:43:03;;;;;;;0.60;0.60;;;;;;;25.85;24.63;97186.22;4973157;28;20825;-87
2022/12/24 07:45:30;;;;;;;0.50;0.50;;;;;;;26.00;24.67;97187.16;4973234;28;20424;-87
2022/12/24 07:47:56;;;;;;;0.63;0.60;;;;;;;26.32;24.56;97192.22;4973413;28;20420;-87
2022/12/24 07:50:22;;;;;;;0.70;0.70;;;;;;;26.65;24.44;97190.25;4973155;28;20435;-87
2022/12/24 07:52:48;;;;;;;0.70;0.70;;;;;;;26.97;23.95;97194.44;4973255;28;20416;-87
2022/12/24 07:55:14;;;;;;;0.93;0.90;;;;;;;25.38;25.80;97193.00;4955770;28;20483;-87
2022/12/24 07:57:40;;;;;;;0.80;0.80;;;;;;;26.23;25.22;97195.03;4973833;28;20400;-87
2022/12/24 08:00:07;;;;;;;1.50;1.00;;;;;;;26.20;24.86;97184.69;4992165;28;20753;-87
2022/12/24 08:02:35;;;;;;;1.20;1.10;;;;;;;26.39;25.06;97191.09;4992505;28;20412;-87
2022/12/24 08:05:01;;;;;;;1.40;1.30;;;;;;;26.13;25.28;97198.31;4992393;28;20394;-87
2022/12/24 08:07:27;;;;;;;0.93;0.93;;;;;;;26.38;24.42;97203.59;4992228;28;20437;-87
2022/12/24 08:09:53;;;;;;;1.00;0.90;;;;;;;26.82;25.29;97204.00;4992550;28;20489;-87
2022/12/24 08:12:19;;;;;;;1.30;1.20;;;;;;;27.30;24.46;97200.09;4992498;28;20464;-87
2022/12/24 08:14:45;;;;;;;1.50;1.40;;;;;;;27.19;23.96;97216.75;4970533;28;20757;-87
2022/12/24 08:17:11;;;;;;;1.10;1.00;;;;;;;27.24;24.99;97213.25;4971739;28;20912;-87
2022/12/24 08:19:38;;;;;;;1.35;1.25;;;;;;;26.81;24.78;97216.53;4972951;28;20822;-87
2022/12/24 08:22:04;;;;;;;1.30;1.20;;;;;;;26.94;25.11;97220.72;4972947;28;20958;-87
2022/12/24 08:24:30;;;;;;;1.40;1.30;;;;;;;27.17;24.82;97233.31;4984295;28;20416;-87
2022/12/24 08:26:56;;;;;;;1.50;1.40;;;;;;;27.36;24.76;97226.34;4994583;28;20580;-87
2022/12/24 08:29:22;;;;;;;0.90;0.90;;;;;;;27.67;24.75;97229.69;4975175;28;20870;-87
2022/12/24 08:31:48;;;;;;;1.20;1.10;;;;;;;27.92;24.34;97234.84;4978338;28;20413;-87
2022/12/24 08:34:14;;;;;;;1.30;1.20;;;;;;;27.95;23.23;97230.28;4995691;28;20439;-87
2022/12/24 08:36:41;;;;;;;1.15;1.10;;;;;;;27.08;24.44;97242.59;4996124;28;20531;-87
2022/12/24 08:39:07;;;;;;;1.33;1.23;;;;;;;26.62;25.57;97246.75;4978453;28;20890;-87
2022/12/24 08:41:34;;;;;;;2.00;1.45;;;;;;;26.52;25.36;97248.78;4978300;28;20963;-87
2022/12/24 08:44:00;;;;;;;1.45;1.30;;;;;;;25.89;26.70;97249.50;4995686;28;20402;-87
2022/12/24 08:46:26;;;;;;;1.50;1.20;;;;;;;26.64;25.99;97258.31;4995762;28;20394;-87
2022/12/24 08:48:52;;;;;;;1.77;1.65;;;;;;;26.24;26.22;97250.03;4990482;28;20437;-87
2022/12/24 08:51:19;;;;;;;1.95;1.55;;;;;;;26.85;25.93;97250.94;4972511;28;20848;-87
2022/12/24 08:53:45;;;;;;;2.08;1.75;;;;;;;27.05;25.45;97248.41;4995427;28;20391;-87
2022/12/24 08:56:12;;;;;;;2.10;1.90;;;;;;;27.08;25.16;97251.06;4988746;28;20401;-87
2022/12/24 08:58:38;;;;;;;2.38;2.00;;;;;;;26.98;25.55;97254.38;4981896;28;20864;-87
2022/12/24 09:01:16;;;;;;;2.10;1.90;;;;;;;26.69;25.56;97250.03;4995353;28;20440;-87
2022/12/24 09:03:42;;;;;;;2.90;2.20;;;;;;;26.43;26.29;97248.00;4989673;28;20396;-87
2022/12/24 09:06:09;;;;;;;2.27;1.90;;;;;;;26.05;26.62;97242.81;4980761;28;20407;-87
2022/12/24 09:08:35;;;;;;;2.88;2.40;;;;;;;25.35;27.61;97252.94;4976044;28;20438;-87
2022/12/24 09:11:04;;;;;;;3.45;2.17;;;;;;;25.63;27.56;97253.81;4975736;28;20446;-87
2022/12/24 09:13:30;;;;;;;2.00;1.80;;;;;;;26.71;26.12;97250.34;4975672;28;20385;-86
2022/12/24 09:15:56;;;;;;;2.85;2.38;;;;;;;26.77;26.61;97253.31;4975784;28;20431;-86
2022/12/24 09:18:23;;;;;;;2.28;2.08;;;;;;;26.77;26.60;97258.94;4958508;28;20754;-86
2022/12/24 09:20:52;;;;;;;2.20;2.00;;;;;;;26.01;27.72;97262.66;4975879;28;20410;-85
2022/12/24 09:23:18;;;;;;;2.78;2.20;;;;;;;25.59;27.75;97267.25;4982664;28;20427;-85
2022/12/24 09:25:44;;;;;;;4.43;1.92;;;;;;;25.04;28.56;97273.84;5014568;28;20780;-85
2022/12/24 09:28:10;;;;;;;3.40;2.38;;;;;;;24.43;29.43;97280.91;5010867;28;20419;-85
2022/12/24 09:30:37;;;;;;;2.63;1.90;;;;;;;24.32;30.06;97286.09;4994016;28;20917;-85
2022/12/24 09:33:03;;;;;;;3.00;1.60;;;;;;;24.90;29.24;97286.38;4994634;28;20421;-85
2022/12/24 09:35:29;;;;;;;2.38;1.67;;;;;;;23.61;31.37;97278.53;4994716;28;20399;-84
2022/12/24 09:38:01;;;;;;;1.90;1.42;;;;;;;24.16;30.53;97291.09;4994406;28;20398;-85
2022/12/24 09:40:39;;;;;;;1.55;1.17;;;;;;;23.84;30.27;97278.94;4982534;28;20400;-84
2022/12/24 09:43:19;;;;;;;1.30;1.00;;;;;;;23.66;31.39;97291.97;4983508;28;20410;-84
2022/12/24 09:45:52;;;;;;;1.60;1.10;;;;;;;24.30;29.38;97291.38;4995023;28;20899;-84
2022/12/24 09:48:23;;;;;;;1.38;1.08;;;;;;;23.71;31.22;97291.41;4994252;28;20423;-84
2022/12/24 09:51:08;;;;;;;3.10;2.25;;;;;;;23.63;30.41;97307.66;4993224;28;20434;-84
2022/12/24 09:53:34;;;;;;;2.75;1.42;;;;;;;22.57;33.04;97307.22;4981039;28;20407;-84
2022/12/24 09:56:05;;;;;;;2.35;1.52;;;;;;;22.79;32.03;97308.22;4975234;28;20899;-84
2022/12/24 09:58:38;;;;;;;1.75;1.20;;;;;;;22.61;32.87;97316.34;4977886;28;20453;-84
2022/12/24 10:01:04;;;;;;;1.45;0.90;;;;;;;23.93;29.34;97303.47;4989213;28;20509;-84
2022/12/24 10:03:31;;;;;;;2.13;1.17;;;;;;;22.92;30.40;97319.47;4994285;28;20754;-84
2022/12/24 10:06:11;;;;;;;1.40;1.00;;;;;;;21.81;32.86;97314.41;4994079;28;20452;-85
2022/12/24 10:09:16;;;;;;;1.33;0.90;;;;;;;22.57;31.58;97338.00;4994314;28;20439;-84
2022/12/24 10:11:49;;;;;;;2.42;1.75;;;;;;;22.01;33.28;97318.72;4991566;28;20909;-84
2022/12/24 10:14:50;;;;;;;1.90;1.20;;;;;;;21.97;32.23;97329.22;4983881;28;20949;-84
2022/12/24 10:17:50;;;;;;;1.73;1.23;;;;;;;22.54;32.26;97322.13;4965569;28;20502;-84
2022/12/24 10:20:35;;;;;;;2.22;1.38;;;;;;;23.12;31.25;97325.66;4974743;28;20404;-84
2022/12/24 10:23:46;;;;;;;5.60;2.20;;;;;;;23.49;31.03;97336.13;4982996;28;20456;-88
2022/12/24 10:26:25;;;;;;;8.30;4.05;;;;;;;24.11;30.08;97334.53;4991668;28;20411;-84
2022/12/24 10:29:11;;;;;;;6.72;3.20;;;;;;;23.19;32.28;97323.44;4993755;28;20425;-84
2022/12/24 10:32:00;;;;;;;4.78;3.45;;;;;;;22.59;32.26;97350.31;4987086;28;20390;-84
2022/12/24 10:34:32;;;;;;;4.63;2.33;;;;;;;23.74;30.34;97354.94;4983158;28;20406;-84
2022/12/24 10:37:01;;;;;;;4.32;2.33;;;;;;;23.25;30.69;97351.66;4993673;28;20409;-84
2022/12/24 10:39:27;;;;;;;3.60;2.15;;;;;;;23.50;30.24;97353.75;4993791;28;20413;-83
2022/12/24 10:41:58;;;;;;;6.65;2.65;;;;;;;22.65;31.91;97356.19;4975981;28;20403;-84
2022/12/24 10:44:27;;;;;;;4.60;2.10;;;;;;;23.23;30.99;97351.31;4993313;28;20499;-84
2022/12/24 10:46:54;;;;;;;8.83;4.17;;;;;;;23.45;30.52;97354.28;4993425;28;20394;-84
2022/12/24 10:49:28;;;;;;;5.80;2.70;;;;;;;23.91;29.72;97357.19;4990362;28;20898;-84
2022/12/24 10:51:57;;;;;;;6.67;2.50;;;;;;;22.71;31.47;97350.84;4993468;28;20423;-84
2022/12/24 10:54:26;;;;;;;9.07;2.50;;;;;;;22.40;32.57;97362.44;4992307;28;20403;-84
2022/12/24 10:57:00;;;;;;;5.50;1.80;;;;;;;22.35;32.29;97360.19;4973853;28;20407;-84
2022/12/24 10:59:38;;;;;;;4.47;1.40;;;;;;;22.12;32.26;97360.38;4990812;28;20409;-83
2022/12/24 11:02:23;;;;;;;3.53;1.60;;;;;;;23.00;31.05;97360.00;4993246;28;20445;-83
2022/12/24 11:04:50;;;;;;;3.92;1.80;;;;;;;23.12;31.02;97364.84;4986285;28;20404;-83
2022/12/24 11:07:22;;;;;;;3.47;1.50;;;;;;;23.93;29.36;97374.34;4973371;28;20428;-83
2022/12/24 11:09:59;;;;;;;3.63;1.48;;;;;;;22.22;32.60;97376.09;4973791;28;20412;-83
2022/12/24 11:12:46;;;;;;;3.00;1.58;;;;;;;23.01;31.72;97376.34;4973842;28;20396;-84
2022/12/24 11:15:26;;;;;;;2.60;1.23;;;;;;;23.23;30.87;97370.91;4973307;28;20402;-83
2022/12/24 11:18:02;;;;;;;4.47;1.70;;;;;;;22.96;31.22;97379.72;4973561;28;20836;-83
2022/12/24 11:20:31;;;;;;;3.38;1.25;;;;;;;23.60;30.27;97381.41;4973548;28;20404;-83
2022/12/24 11:22:57;;;;;;;2.55;1.23;;;;;;;22.84;32.19;97376.88;4974142;28;20479;-84
2022/12/24 11:25:30;;;;;;;3.55;1.45;;;;;;;23.38;30.91;97393.72;4978718;28;20736;-84
2022/12/24 11:28:10;;;;;;;3.43;1.30;;;;;;;23.70;29.58;97385.91;4992630;28;20816;-84
2022/12/24 11:30:37;;;;;;;3.10;1.20;;;;;;;24.59;28.23;97384.56;4992714;28;20398;-84
2022/12/24 11:33:06;;;;;;;2.27;1.13;;;;;;;24.89;28.01;97394.38;4992781;28;20405;-84
2022/12/24 11:35:38;;;;;;;3.57;1.40;;;;;;;23.11;31.03;97388.47;4992655;28;20397;-83
2022/12/24 11:38:04;;;;;;;4.78;1.60;;;;;;;22.77;32.14;97405.06;4992214;28;20896;-83
2022/12/24 11:40:41;;;;;;;3.47;1.40;;;;;;;23.53;30.92;97394.84;4982049;28;20422;-83
2022/12/24 11:43:18;;;;;;;3.05;1.40;;;;;;;22.42;31.93;97407.53;4992797;28;20392;-83
2022/12/24 11:45:56;;;;;;;2.42;1.23;;;;;;;23.04;30.78;97399.88;4992901;28;20417;-84
2022/12/24 11:48:33;;;;;;;3.50;1.40;;;;;;;22.68;32.79;97402.91;4992625;28;20432;-84
2022/12/24 11:51:02;;;;;;;3.45;1.50;;;;;;;22.86;30.80;97408.78;4987711;28;20407;-83
2022/12/24 11:53:54;;;;;;;2.45;1.30;;;;;;;22.88;31.79;97427.94;4955967;28;20561;-83
2022/12/24 11:56:39;;;;;;;6.43;1.85;;;;;;;22.31;33.09;97421.00;4983853;28;20898;-84